sensor_id;sensor_type;location;lat;lon;timestamp;P1;durP1;ratioP1;P2;durP2;ratioP2
46597;SDS011;32318;48.858;8.252;2023-04-06T01:22:03;8.48;;;3.90;;
46597;SDS011;32318;48.858;8.252;2023-04-06T01:30:04;6.78;;;3.25;;
46597;SDS011;32318;48.858;8.252;2023-04-06T01:38:05;8.27;;;3.60;;
46597;SDS011;32318;48.858;8.252;2023-04-06T01:46:06;6.72;;;3.30;;
46597;SDS011;32318;48.858;8.252;2023-04-06T01:54:06;10.95;;;3.55;;
46597;SDS011;32318;48.858;8.252;2023-04-06T02:02:06;9.32;;;4.20;;
46597;SDS011;32318;48.858;8.252;2023-04-06T02:10:10;8.82;;;4.07;;
46597;SDS011;32318;48.858;8.252;2023-04-06T02:18:14;9.05;;;3.58;;
46597;SDS011;32318;48.858;8.252;2023-04-06T02:26:14;8.98;;;4.07;;
46597;SDS011;32318;48.858;8.252;2023-04-06T02:34:14;10.02;;;4.15;;
46597;SDS011;32318;48.858;8.252;2023-04-06T02:42:17;8.05;;;3.72;;
46597;SDS011;32318;48.858;8.252;2023-04-06T02:50:17;11.40;;;4.28;;
46597;SDS011;32318;48.858;8.252;2023-04-06T02:58:18;9.07;;;4.57;;
46597;SDS011;32318;48.858;8.252;2023-04-06T03:06:18;8.20;;;4.00;;
46597;SDS011;32318;48.858;8.252;2023-04-06T03:14:18;7.40;;;3.75;;
46597;SDS011;32318;48.858;8.252;2023-04-06T03:22:21;8.00;;;4.40;;
46597;SDS011;32318;48.858;8.252;2023-04-06T03:30:21;6.80;;;3.80;;
46597;SDS011;32318;48.858;8.252;2023-04-06T03:38:22;7.50;;;4.30;;
46597;SDS011;32318;48.858;8.252;2023-04-06T03:46:22;9.07;;;4.68;;
46597;SDS011;32318;48.858;8.252;2023-04-06T03:54:22;14.18;;;5.60;;
46597;SDS011;32318;48.858;8.252;2023-04-06T04:02:23;9.70;;;4.75;;
46597;SDS011;32318;48.858;8.252;2023-04-06T04:10:23;12.77;;;6.30;;
46597;SDS011;32318;48.858;8.252;2023-04-06T04:18:23;14.23;;;5.65;;
46597;SDS011;32318;48.858;8.252;2023-04-06T04:26:24;9.20;;;4.63;;
46597;SDS011;32318;48.858;8.252;2023-04-06T04:34:24;12.73;;;5.53;;
46597;SDS011;32318;48.858;8.252;2023-04-06T04:42:25;11.30;;;5.40;;
46597;SDS011;32318;48.858;8.252;2023-04-06T04:50:25;9.90;;;5.40;;
46597;SDS011;32318;48.858;8.252;2023-04-06T04:58:25;10.35;;;5.70;;
46597;SDS011;32318;48.858;8.252;2023-04-06T05:06:26;13.15;;;5.65;;
46597;SDS011;32318;48.858;8.252;2023-04-06T05:14:26;12.32;;;5.68;;
46597;SDS011;32318;48.858;8.252;2023-04-06T05:22:27;15.38;;;6.43;;
46597;SDS011;32318;48.858;8.252;2023-04-06T05:30:27;18.85;;;6.68;;
46597;SDS011;32318;48.858;8.252;2023-04-06T05:38:27;20.50;;;6.72;;
46597;SDS011;32318;48.858;8.252;2023-04-06T05:46:28;17.77;;;6.28;;
46597;SDS011;32318;48.858;8.252;2023-04-06T05:54:28;15.35;;;5.70;;
46597;SDS011;32318;48.858;8.252;2023-04-06T06:02:30;13.02;;;5.90;;
46597;SDS011;32318;48.858;8.252;2023-04-06T06:10:30;15.70;;;6.70;;
46597;SDS011;32318;48.858;8.252;2023-04-06T06:18:31;12.18;;;6.28;;
46597;SDS011;32318;48.858;8.252;2023-04-06T06:26:31;14.63;;;5.82;;
46597;SDS011;32318;48.858;8.252;2023-04-06T06:34:32;17.20;;;5.55;;
46597;SDS011;32318;48.858;8.252;2023-04-06T06:42:32;10.52;;;5.68;;
46597;SDS011;32318;48.858;8.252;2023-04-06T06:50:32;15.82;;;5.65;;
46597;SDS011;32318;48.858;8.252;2023-04-06T06:58:32;12.32;;;5.32;;
46597;SDS011;32318;48.858;8.252;2023-04-06T07:06:33;10.15;;;5.40;;
46597;SDS011;32318;48.858;8.252;2023-04-06T07:14:33;17.33;;;6.68;;
46597;SDS011;32318;48.858;8.252;2023-04-06T07:22:33;16.58;;;5.70;;
46597;SDS011;32318;48.858;8.252;2023-04-06T07:30:34;14.30;;;6.25;;
46597;SDS011;32318;48.858;8.252;2023-04-06T07:38:34;14.32;;;5.82;;
46597;SDS011;32318;48.858;8.252;2023-04-06T07:46:35;13.85;;;7.05;;
46597;SDS011;32318;48.858;8.252;2023-04-06T07:54:36;15.73;;;6.45;;
46597;SDS011;32318;48.858;8.252;2023-04-06T08:02:36;18.02;;;5.95;;
46597;SDS011;32318;48.858;8.252;2023-04-06T08:10:36;19.27;;;6.40;;
46597;SDS011;32318;48.858;8.252;2023-04-06T08:18:36;17.67;;;7.07;;
46597;SDS011;32318;48.858;8.252;2023-04-06T08:26:37;16.58;;;7.38;;
46597;SDS011;32318;48.858;8.252;2023-04-06T08:34:37;23.10;;;7.15;;
46597;SDS011;32318;48.858;8.252;2023-04-06T08:42:39;11.45;;;6.38;;
46597;SDS011;32318;48.858;8.252;2023-04-06T08:50:43;16.90;;;6.90;;
46597;SDS011;32318;48.858;8.252;2023-04-06T08:58:44;15.48;;;8.40;;
46597;SDS011;32318;48.858;8.252;2023-04-06T09:06:45;15.13;;;7.25;;
46597;SDS011;32318;48.858;8.252;2023-04-06T09:14:45;19.02;;;7.10;;
46597;SDS011;32318;48.858;8.252;2023-04-06T09:22:45;20.20;;;6.75;;
46597;SDS011;32318;48.858;8.252;2023-04-06T09:30:48;16.35;;;7.22;;
46597;SDS011;32318;48.858;8.252;2023-04-06T09:38:56;16.10;;;7.47;;
46597;SDS011;32318;48.858;8.252;2023-04-06T09:46:57;14.18;;;6.63;;
46597;SDS011;32318;48.858;8.252;2023-04-06T09:54:59;22.55;;;8.13;;
46597;SDS011;32318;48.858;8.252;2023-04-06T10:03:26;26.77;;;7.20;;
46597;SDS011;32318;48.858;8.252;2023-04-06T10:11:38;31.90;;;7.30;;
46597;SDS011;32318;48.858;8.252;2023-04-06T10:19:46;11.63;;;6.55;;
46597;SDS011;32318;48.858;8.252;2023-04-06T10:27:58;17.88;;;8.07;;
46597;SDS011;32318;48.858;8.252;2023-04-06T10:36:14;14.43;;;6.93;;
46597;SDS011;32318;48.858;8.252;2023-04-06T10:44:21;19.48;;;7.95;;
46597;SDS011;32318;48.858;8.252;2023-04-06T10:52:23;24.23;;;8.35;;
46597;SDS011;32318;48.858;8.252;2023-04-06T11:00:24;22.42;;;7.53;;
46597;SDS011;32318;48.858;8.252;2023-04-06T11:08:25;18.80;;;8.32;;
46597;SDS011;32318;48.858;8.252;2023-04-06T11:16:31;16.90;;;7.88;;
46597;SDS011;32318;48.858;8.252;2023-04-06T11:24:32;14.07;;;6.85;;
46597;SDS011;32318;48.858;8.252;2023-04-06T11:32:39;16.25;;;7.40;;
46597;SDS011;32318;48.858;8.252;2023-04-06T11:40:45;15.65;;;7.28;;
46597;SDS011;32318;48.858;8.252;2023-04-06T11:48:46;17.70;;;7.53;;
46597;SDS011;32318;48.858;8.252;2023-04-06T11:56:46;19.05;;;7.10;;
46597;SDS011;32318;48.858;8.252;2023-04-06T12:04:47;20.85;;;7.15;;
46597;SDS011;32318;48.858;8.252;2023-04-06T12:12:47;17.60;;;5.82;;
46597;SDS011;32318;48.858;8.252;2023-04-06T12:20:47;12.93;;;5.97;;
46597;SDS011;32318;48.858;8.252;2023-04-06T12:28:47;10.57;;;5.40;;
46597;SDS011;32318;48.858;8.252;2023-04-06T12:36:48;14.75;;;5.15;;
46597;SDS011;32318;48.858;8.252;2023-04-06T12:44:48;10.48;;;5.50;;
46597;SDS011;32318;48.858;8.252;2023-04-06T12:52:48;13.60;;;5.95;;
46597;SDS011;32318;48.858;8.252;2023-04-06T13:00:50;12.57;;;5.85;;
46597;SDS011;32318;48.858;8.252;2023-04-06T13:08:50;11.80;;;5.22;;
46597;SDS011;32318;48.858;8.252;2023-04-06T13:25:22;12.07;;;5.82;;
46597;SDS011;32318;48.858;8.252;2023-04-06T13:33:23;12.57;;;4.57;;
46597;SDS011;32318;48.858;8.252;2023-04-06T13:41:24;14.02;;;6.30;;
46597;SDS011;32318;48.858;8.252;2023-04-06T13:49:26;14.23;;;5.88;;
46597;SDS011;32318;48.858;8.252;2023-04-06T13:57:26;15.48;;;5.57;;
46597;SDS011;32318;48.858;8.252;2023-04-06T14:05:30;20.25;;;6.57;;
46597;SDS011;32318;48.858;8.252;2023-04-06T14:13:31;19.95;;;7.00;;
46597;SDS011;32318;48.858;8.252;2023-04-06T14:21:32;16.65;;;6.53;;
46597;SDS011;32318;48.858;8.252;2023-04-06T14:29:32;15.20;;;6.32;;
46597;SDS011;32318;48.858;8.252;2023-04-06T14:37:32;16.42;;;6.93;;
46597;SDS011;32318;48.858;8.252;2023-04-06T14:45:33;15.85;;;6.97;;
46597;SDS011;32318;48.858;8.252;2023-04-06T14:53:34;15.23;;;6.15;;
46597;SDS011;32318;48.858;8.252;2023-04-06T15:01:35;16.27;;;6.32;;
46597;SDS011;32318;48.858;8.252;2023-04-06T15:09:36;13.23;;;5.63;;
46597;SDS011;32318;48.858;8.252;2023-04-06T15:17:36;16.00;;;6.60;;
46597;SDS011;32318;48.858;8.252;2023-04-06T15:25:37;17.83;;;6.53;;
46597;SDS011;32318;48.858;8.252;2023-04-06T15:33:41;15.65;;;7.07;;
46597;SDS011;32318;48.858;8.252;2023-04-06T15:41:41;24.42;;;6.80;;
46597;SDS011;32318;48.858;8.252;2023-04-06T15:49:41;22.67;;;7.72;;
46597;SDS011;32318;48.858;8.252;2023-04-06T15:57:41;16.48;;;6.20;;
46597;SDS011;32318;48.858;8.252;2023-04-06T16:05:43;21.58;;;6.75;;
46597;SDS011;32318;48.858;8.252;2023-04-06T16:13:45;20.70;;;8.13;;
46597;SDS011;32318;48.858;8.252;2023-04-06T16:21:45;11.77;;;5.82;;
46597;SDS011;32318;48.858;8.252;2023-04-06T16:29:46;8.75;;;4.50;;
46597;SDS011;32318;48.858;8.252;2023-04-06T16:37:46;12.70;;;5.53;;
46597;SDS011;32318;48.858;8.252;2023-04-06T16:45:50;8.00;;;4.32;;
46597;SDS011;32318;48.858;8.252;2023-04-06T16:53:51;14.25;;;5.63;;
46597;SDS011;32318;48.858;8.252;2023-04-06T17:01:51;12.95;;;5.15;;
46597;SDS011;32318;48.858;8.252;2023-04-06T17:09:53;8.10;;;4.45;;
46597;SDS011;32318;48.858;8.252;2023-04-06T17:17:53;8.40;;;4.28;;
46597;SDS011;32318;48.858;8.252;2023-04-06T17:25:56;25.85;;;10.43;;
46597;SDS011;32318;48.858;8.252;2023-04-06T17:33:58;11.10;;;4.50;;
46597;SDS011;32318;48.858;8.252;2023-04-06T17:41:58;10.27;;;4.85;;
46597;SDS011;32318;48.858;8.252;2023-04-06T17:49:59;8.80;;;4.20;;
46597;SDS011;32318;48.858;8.252;2023-04-06T17:58:01;12.15;;;4.78;;
46597;SDS011;32318;48.858;8.252;2023-04-06T18:06:11;15.02;;;6.13;;
46597;SDS011;32318;48.858;8.252;2023-04-06T18:14:12;14.55;;;4.63;;
46597;SDS011;32318;48.858;8.252;2023-04-06T18:22:14;8.35;;;4.22;;
46597;SDS011;32318;48.858;8.252;2023-04-06T18:30:15;9.23;;;4.65;;
46597;SDS011;32318;48.858;8.252;2023-04-06T18:38:16;11.23;;;5.20;;
46597;SDS011;32318;48.858;8.252;2023-04-06T18:46:17;8.88;;;4.88;;
46597;SDS011;32318;48.858;8.252;2023-04-06T18:54:21;13.07;;;4.85;;
46597;SDS011;32318;48.858;8.252;2023-04-06T19:02:21;11.90;;;5.32;;
46597;SDS011;32318;48.858;8.252;2023-04-06T19:10:21;12.35;;;4.75;;
46597;SDS011;32318;48.858;8.252;2023-04-06T19:18:22;11.55;;;5.45;;
46597;SDS011;32318;48.858;8.252;2023-04-06T19:26:22;9.68;;;5.53;;
46597;SDS011;32318;48.858;8.252;2023-04-06T19:34:24;13.73;;;6.32;;
46597;SDS011;32318;48.858;8.252;2023-04-06T19:42:24;18.05;;;6.68;;
46597;SDS011;32318;48.858;8.252;2023-04-06T19:50:25;15.10;;;5.68;;
46597;SDS011;32318;48.858;8.252;2023-04-06T19:58:25;11.07;;;5.63;;
46597;SDS011;32318;48.858;8.252;2023-04-06T20:06:26;13.10;;;5.50;;
46597;SDS011;32318;48.858;8.252;2023-04-06T20:14:28;7.30;;;4.53;;
46597;SDS011;32318;48.858;8.252;2023-04-06T20:22:30;11.55;;;5.22;;
46597;SDS011;32318;48.858;8.252;2023-04-06T20:30:30;13.43;;;5.55;;
46597;SDS011;32318;48.858;8.252;2023-04-06T20:38:30;10.55;;;5.65;;
46597;SDS011;32318;48.858;8.252;2023-04-06T20:46:30;10.57;;;4.75;;
46597;SDS011;32318;48.858;8.252;2023-04-06T20:54:30;9.43;;;4.70;;
46597;SDS011;32318;48.858;8.252;2023-04-06T21:02:31;11.30;;;4.28;;
46597;SDS011;32318;48.858;8.252;2023-04-06T21:10:40;6.70;;;3.90;;
46597;SDS011;32318;48.858;8.252;2023-04-06T21:18:40;10.30;;;4.63;;
46597;SDS011;32318;48.858;8.252;2023-04-06T21:26:41;13.80;;;5.55;;
46597;SDS011;32318;48.858;8.252;2023-04-06T21:34:41;10.50;;;6.20;;
46597;SDS011;32318;48.858;8.252;2023-04-06T21:42:44;13.13;;;6.75;;
46597;SDS011;32318;48.858;8.252;2023-04-06T21:50:45;10.65;;;4.80;;
46597;SDS011;32318;48.858;8.252;2023-04-06T21:58:45;9.27;;;4.65;;
46597;SDS011;32318;48.858;8.252;2023-04-06T22:06:45;11.98;;;4.30;;
46597;SDS011;32318;48.858;8.252;2023-04-06T22:14:46;10.07;;;4.47;;
46597;SDS011;32318;48.858;8.252;2023-04-06T22:22:47;9.38;;;3.72;;
46597;SDS011;32318;48.858;8.252;2023-04-06T22:30:47;7.78;;;3.72;;
46597;SDS011;32318;48.858;8.252;2023-04-06T22:38:47;10.88;;;3.97;;
46597;SDS011;32318;48.858;8.252;2023-04-06T22:46:49;7.95;;;4.05;;
46597;SDS011;32318;48.858;8.252;2023-04-06T22:54:50;8.35;;;4.07;;
46597;SDS011;32318;48.858;8.252;2023-04-06T23:02:50;7.28;;;3.90;;
46597;SDS011;32318;48.858;8.252;2023-04-06T23:10:50;6.15;;;3.53;;
46597;SDS011;32318;48.858;8.252;2023-04-06T23:18:50;6.15;;;3.53;;
46597;SDS011;32318;48.858;8.252;2023-04-06T23:26:51;7.57;;;4.22;;
46597;SDS011;32318;48.858;8.252;2023-04-06T23:34:51;8.98;;;4.60;;
46597;SDS011;32318;48.858;8.252;2023-04-06T23:42:51;10.45;;;5.50;;
46597;SDS011;32318;48.858;8.252;2023-04-06T23:50:51;8.88;;;4.93;;
46597;SDS011;32318;48.858;8.252;2023-04-06T23:58:52;9.93;;;5.45;;
